Time;durP1;ratioP1;P1;durP2;ratioP2;P2;SDS_P1;SDS_P2;PMS_P1;PMS_P2;Temp;Humidity;BMP_temperature;BMP_pressure;BME280_temperature;BME280_humidity;BME280_pressure;Samples;Min_cycle;Max_cycle;Signal;HPM_P1;HPM_P2
2022/10/16 00:01:11;;;;;;;8.82;5.13;;;;;;;5.64;59.83;101037.63;5033593;28;20025;-53
2022/10/16 00:03:37;;;;;;;8.60;5.70;;;;;;;5.58;60.21;101032.56;5033607;28;20029;-53
2022/10/16 00:06:03;;;;;;;11.80;4.85;;;;;;;5.50;60.21;101029.38;5033669;28;20033;-53
2022/10/16 00:08:29;;;;;;;14.02;5.25;;;;;;;5.52;60.13;101043.44;5040831;28;20029;-52
2022/10/16 00:11:00;;;;;;;11.07;5.05;;;;;;;5.52;60.28;101048.75;5060198;28;20037;-51
2022/10/16 00:13:26;;;;;;;10.68;5.28;;;;;;;5.48;60.40;101047.16;5045587;28;20079;-53
2022/10/16 00:15:55;;;;;;;9.80;5.22;;;;;;;5.50;60.29;101051.47;5069046;28;20064;-47
2022/10/16 00:18:21;;;;;;;8.32;5.20;;;;;;;5.44;60.47;101046.41;5053591;28;20028;-48
2022/10/16 00:20:47;;;;;;;8.45;5.18;;;;;;;5.42;60.81;101053.56;5053113;28;20063;-52
2022/10/16 00:23:31;;;;;;;10.38;5.20;;;;;;;5.42;60.60;101056.22;5053345;28;20039;-54
2022/10/16 00:25:59;;;;;;;9.18;5.13;;;;;;;5.19;60.64;101025.28;5052907;28;20120;-55
2022/10/16 00:28:25;;;;;;;11.93;5.65;;;;;;;5.16;61.19;101026.25;5038436;28;20044;-51
2022/10/16 00:30:51;;;;;;;8.77;5.45;;;;;;;5.17;60.90;101036.78;5033279;28;20061;-53
2022/10/16 00:33:16;;;;;;;10.85;5.55;;;;;;;5.30;60.97;101055.78;5050867;28;20065;-59
2022/10/16 00:35:42;;;;;;;8.52;5.15;;;;;;;5.31;60.96;101056.63;5033622;28;20033;-52
2022/10/16 00:38:07;;;;;;;11.75;5.63;;;;;;;5.30;60.54;101063.75;5033162;28;20025;-54
2022/10/16 00:40:33;;;;;;;13.48;6.00;;;;;;;5.32;60.48;101061.91;5033245;28;20132;-57
2022/10/16 00:42:58;;;;;;;11.43;5.30;;;;;;;5.34;60.37;101071.59;5067517;28;20155;-52
2022/10/16 00:45:24;;;;;;;12.38;5.35;;;;;;;5.28;60.63;101054.97;5052596;28;20462;-54
2022/10/16 00:47:52;;;;;;;8.60;5.13;;;;;;;5.28;60.66;101059.41;5052064;28;20033;-50
2022/10/16 00:50:28;;;;;;;12.60;5.88;;;;;;;5.34;61.58;101067.13;5067411;28;20103;-53
2022/10/16 00:52:54;;;;;;;10.65;5.40;;;;;;;5.26;61.44;101064.78;5032704;28;20064;-53
2022/10/16 00:55:20;;;;;;;8.02;5.22;;;;;;;5.22;61.48;101063.16;5031465;28;20059;-51
2022/10/16 00:57:46;;;;;;;12.18;5.13;;;;;;;5.20;61.12;101070.31;5040040;28;20029;-49
2022/10/16 01:00:19;;;;;;;8.20;5.03;;;;;;;5.25;60.98;101078.13;5052437;28;20037;-53
2022/10/16 01:02:55;;;;;;;13.18;5.72;;;;;;;5.23;61.21;101075.50;5052891;28;20451;-54
2022/10/16 01:05:23;;;;;;;10.88;4.75;;;;;;;5.17;61.03;101070.44;5050612;28;20036;-51
2022/10/16 01:07:55;;;;;;;11.95;5.43;;;;;;;5.10;62.32;101075.13;5034156;28;20120;-52
2022/10/16 01:10:49;;;;;;;9.85;5.28;;;;;;;5.16;62.03;101076.69;5040347;28;20029;-50
2022/10/16 01:13:24;;;;;;;9.45;4.95;;;;;;;5.11;61.96;101081.31;5068109;28;20397;-52
2022/10/16 01:16:06;;;;;;;8.73;5.65;;;;;;;5.09;62.34;101085.81;5050920;28;20186;-53
2022/10/16 01:18:39;;;;;;;9.27;4.93;;;;;;;5.03;62.72;101093.06;5032372;28;20401;-49
2022/10/16 01:21:10;;;;;;;12.00;5.30;;;;;;;4.97;62.29;101085.31;5031431;28;20037;-53
2022/10/16 01:23:51;;;;;;;11.82;5.50;;;;;;;5.00;61.59;101089.66;5032149;28;20033;-52
2022/10/16 01:26:23;;;;;;;13.05;5.78;;;;;;;4.97;61.78;101087.97;5036585;28;20364;-55
2022/10/16 01:28:57;;;;;;;12.07;5.60;;;;;;;4.80;62.16;101056.75;5049033;28;20300;-50
2022/10/16 01:31:27;;;;;;;11.23;5.40;;;;;;;4.92;62.41;101091.72;5032009;28;20059;-50
2022/10/16 01:34:39;;;;;;;7.82;4.72;;;;;;;4.83;62.28;101061.09;5032413;28;20025;-50
2022/10/16 01:37:11;;;;;;;10.68;4.88;;;;;;;4.90;62.72;101094.44;5031749;28;20037;-53
2022/10/16 01:39:39;;;;;;;12.23;5.18;;;;;;;4.85;62.42;101093.75;5040235;28;20044;-49
2022/10/16 01:42:12;;;;;;;12.95;5.25;;;;;;;4.81;62.59;101092.09;5051743;28;20045;-51
2022/10/16 01:44:39;;;;;;;17.08;5.45;;;;;;;4.79;62.58;101097.50;5052282;28;20147;-50
2022/10/16 01:47:08;;;;;;;11.45;5.32;;;;;;;4.75;62.58;101090.56;5051693;28;20079;-51
2022/10/16 01:49:37;;;;;;;9.73;4.97;;;;;;;4.73;62.77;101098.56;5043790;28;20037;-50
2022/10/16 01:52:08;;;;;;;9.45;5.63;;;;;;;4.68;62.65;101084.59;5050432;28;20435;-54
2022/10/16 01:54:37;;;;;;;12.68;5.20;;;;;;;4.70;63.35;101097.78;5032206;28;20033;-51
2022/10/16 01:57:06;;;;;;;9.25;5.53;;;;;;;4.69;63.09;101090.75;5031840;28;20026;-51
2022/10/16 01:59:38;;;;;;;11.20;5.53;;;;;;;4.68;62.97;101089.03;5032039;28;20033;-52
2022/10/16 02:02:07;;;;;;;13.68;5.25;;;;;;;4.66;63.06;101090.88;5035055;28;20475;-54
2022/10/16 02:04:38;;;;;;;7.43;5.25;;;;;;;4.63;62.97;101101.59;5036009;28;20112;-51
2022/10/16 02:07:04;;;;;;;11.57;5.32;;;;;;;4.47;63.23;101069.44;5036994;28;20021;-54
2022/10/16 02:09:32;;;;;;;12.52;4.63;;;;;;;4.60;62.87;101091.97;5042627;28;20310;-53
2022/10/16 02:12:02;;;;;;;9.57;5.55;;;;;;;4.61;63.17;101099.03;5035661;28;20034;-54
2022/10/16 02:14:29;;;;;;;10.85;5.68;;;;;;;4.47;62.95;101074.75;5035746;28;20040;-54
2022/10/16 02:16:54;;;;;;;10.80;5.60;;;;;;;4.57;63.66;101092.94;5046623;28;20454;-55
2022/10/16 02:19:21;;;;;;;13.25;5.22;;;;;;;4.58;63.32;101088.50;5044548;28;20030;-51
2022/10/16 02:21:50;;;;;;;10.57;5.43;;;;;;;4.56;63.66;101085.91;5035587;28;20033;-51
2022/10/16 02:25:13;;;;;;;11.20;5.53;;;;;;;4.65;63.69;101098.00;5047986;28;20130;-56
2022/10/16 02:28:12;;;;;;;10.93;5.82;;;;;;;4.67;63.50;101093.50;4993230;28;20073;-52
2022/10/16 02:30:56;;;;;;;11.48;5.15;;;;;;;4.62;63.08;101100.75;5035335;28;20064;-53
2022/10/16 02:33:24;;;;;;;11.00;5.32;;;;;;;4.58;63.02;101105.28;5035601;28;20065;-54
2022/10/16 02:35:51;;;;;;;8.80;5.10;;;;;;;4.55;62.85;101101.88;5035527;28;20029;-55
2022/10/16 02:38:18;;;;;;;9.10;5.22;;;;;;;4.54;63.64;101108.97;5036112;28;20360;-53
2022/10/16 02:40:46;;;;;;;8.75;5.15;;;;;;;4.53;63.45;101103.69;5053644;28;20139;-55
2022/10/16 02:43:11;;;;;;;11.32;5.32;;;;;;;4.55;63.35;101101.88;5054987;28;20095;-53
2022/10/16 02:45:37;;;;;;;10.57;5.20;;;;;;;4.57;63.64;101110.63;5051303;28;20440;-53
2022/10/16 02:48:03;;;;;;;11.35;4.97;;;;;;;4.54;63.34;101105.44;5034847;28;20108;-53
2022/10/16 02:50:28;;;;;;;10.45;4.82;;;;;;;4.52;63.14;101100.22;5054368;28;20392;-52
2022/10/16 02:52:54;;;;;;;11.35;4.47;;;;;;;4.53;62.98;101107.25;5054990;28;20104;-60
2022/10/16 02:55:19;;;;;;;9.57;4.88;;;;;;;4.52;63.10;101109.94;5055284;28;20056;-51
2022/10/16 02:57:45;;;;;;;9.73;5.43;;;;;;;4.51;63.16;101109.09;5053906;28;20060;-51
2022/10/16 03:00:14;;;;;;;7.28;4.53;;;;;;;4.32;62.65;101071.69;5037874;28;20035;-54
2022/10/16 03:02:39;;;;;;;8.40;4.40;;;;;;;4.52;63.06;101104.63;5054565;28;20036;-53
2022/10/16 03:05:05;;;;;;;8.02;4.97;;;;;;;4.35;63.02;101081.34;5054706;28;20240;-52
2022/10/16 03:07:31;;;;;;;8.75;5.00;;;;;;;4.53;63.22;101123.16;5054726;28;20131;-56
2022/10/16 03:09:56;;;;;;;9.90;4.68;;;;;;;4.54;62.86;101122.22;5039906;28;20026;-53
2022/10/16 03:12:22;;;;;;;8.73;4.68;;;;;;;4.55;62.71;101123.97;5050628;28;20371;-55
2022/10/16 03:14:47;;;;;;;8.15;4.65;;;;;;;4.57;62.27;101126.53;5054301;28;20036;-55
2022/10/16 03:17:13;;;;;;;8.65;4.70;;;;;;;4.56;62.56;101122.16;5054271;28;20025;-54
2022/10/16 03:19:39;;;;;;;9.57;4.82;;;;;;;4.54;62.63;101124.88;5042304;28;20109;-54
2022/10/16 03:22:04;;;;;;;8.63;4.45;;;;;;;4.54;62.99;101139.91;5035437;28;20029;-53
2022/10/16 03:24:30;;;;;;;7.03;4.72;;;;;;;4.40;62.71;101106.78;5034265;28;20045;-53
2022/10/16 03:26:55;;;;;;;7.88;4.78;;;;;;;4.53;63.00;101122.28;5034264;28;20048;-58
2022/10/16 03:29:21;;;;;;;8.70;4.95;;;;;;;4.51;62.18;101125.00;5043451;28;20024;-51
2022/10/16 03:31:48;;;;;;;8.32;4.82;;;;;;;4.52;63.25;101125.84;5054262;28;20473;-54
2022/10/16 03:34:13;;;;;;;10.00;5.18;;;;;;;4.52;62.78;101131.16;5038961;28;20345;-54
2022/10/16 03:36:39;;;;;;;8.02;4.47;;;;;;;4.51;62.93;101143.56;5033974;28;20098;-56
2022/10/16 03:39:04;;;;;;;8.75;5.03;;;;;;;4.51;62.78;101137.38;5033585;28;20017;-51
2022/10/16 03:41:30;;;;;;;10.55;4.90;;;;;;;4.53;62.75;101143.50;5033767;28;20061;-52
2022/10/16 03:43:55;;;;;;;8.80;4.85;;;;;;;4.53;62.41;101140.84;5034191;28;20128;-54
2022/10/16 03:46:21;;;;;;;8.05;4.90;;;;;;;4.52;62.59;101142.63;5041153;28;20033;-57
2022/10/16 03:48:46;;;;;;;7.55;4.55;;;;;;;4.53;63.10;101138.19;5049882;28;20204;-49
2022/10/16 03:51:11;;;;;;;9.43;5.18;;;;;;;4.46;62.77;101126.91;5033856;28;20025;-53
2022/10/16 03:53:37;;;;;;;9.35;4.80;;;;;;;4.51;62.69;101140.03;5041122;28;20056;-51
2022/10/16 03:56:02;;;;;;;9.90;4.82;;;;;;;4.50;63.04;101138.28;5053528;28;20036;-54
2022/10/16 03:58:28;;;;;;;7.28;4.40;;;;;;;4.46;62.72;101132.22;5052461;28;20417;-56
2022/10/16 04:00:54;;;;;;;8.38;4.32;;;;;;;4.52;62.86;101141.75;5034228;28;20040;-52
2022/10/16 04:03:19;;;;;;;8.63;4.65;;;;;;;4.49;62.81;101132.16;5033537;28;20044;-55
2022/10/16 04:05:45;;;;;;;8.18;4.72;;;;;;;4.52;62.29;101139.09;5033376;28;20096;-54
2022/10/16 04:08:10;;;;;;;10.57;4.90;;;;;;;4.53;62.64;101132.88;5034690;28;20025;-55
2022/10/16 04:10:36;;;;;;;10.35;4.78;;;;;;;4.60;62.32;101137.94;5037507;28;20414;-57
2022/10/16 04:13:01;;;;;;;10.85;5.00;;;;;;;4.63;62.20;101136.09;5053200;28;20416;-52
2022/10/16 04:15:27;;;;;;;8.05;4.80;;;;;;;4.65;62.21;101134.25;5053622;28;20041;-54
2022/10/16 04:17:52;;;;;;;11.48;4.88;;;;;;;4.67;62.04;101135.06;5052644;28;20036;-54
2022/10/16 04:20:18;;;;;;;8.43;4.53;;;;;;;4.69;62.56;101133.22;5033495;28;20154;-56
2022/10/16 04:22:44;;;;;;;8.80;4.30;;;;;;;4.66;62.16;101122.72;5033141;28;20503;-56
2022/10/16 04:25:11;;;;;;;9.23;5.10;;;;;;;4.80;61.42;101138.13;5034023;28;20125;-55
2022/10/16 04:27:38;;;;;;;9.57;4.95;;;;;;;4.79;61.88;101142.59;5052700;28;20037;-51
2022/10/16 04:30:05;;;;;;;8.88;4.60;;;;;;;4.90;61.73;101158.13;5035243;28;20120;-52
2022/10/16 04:32:30;;;;;;;8.70;4.63;;;;;;;5.62;59.78;101143.09;5044444;28;20032;-54
2022/10/16 04:34:56;;;;;;;12.55;4.88;;;;;;;7.31;55.02;101148.50;5053130;28;20204;-59
2022/10/16 04:37:25;;;;;;;10.82;4.53;;;;;;;8.83;50.97;101141.22;5052759;28;20021;-54
2022/10/16 04:39:51;;;;;;;9.90;4.40;;;;;;;9.46;48.62;101142.31;5036447;28;20376;-61
2022/10/16 04:42:16;;;;;;;9.82;4.18;;;;;;;9.53;47.86;101153.53;5035665;28;20451;-58
2022/10/16 04:44:42;;;;;;;9.25;4.63;;;;;;;9.46;48.08;101157.50;5052477;28;20051;-49
2022/10/16 04:47:08;;;;;;;9.77;4.70;;;;;;;9.55;47.93;101148.13;5052077;28;20029;-53
2022/10/16 04:49:33;;;;;;;12.98;4.28;;;;;;;9.42;47.59;101150.59;5039241;28;20114;-53
2022/10/16 04:51:59;;;;;;;8.77;4.68;;;;;;;8.94;48.89;101147.78;5033163;28;20025;-50
2022/10/16 04:54:24;;;;;;;8.07;4.80;;;;;;;8.35;50.30;101143.59;5033065;28;20112;-51
2022/10/16 04:56:51;;;;;;;6.72;4.65;;;;;;;7.87;51.53;101154.78;5050735;28;20111;-52
2022/10/16 04:59:18;;;;;;;9.98;4.85;;;;;;;8.36;51.11;101161.34;5041857;28;20084;-51
2022/10/16 05:01:44;;;;;;;9.30;4.88;;;;;;;10.61;45.79;101153.72;5038912;28;20037;-49
2022/10/16 05:04:10;;;;;;;6.55;4.82;;;;;;;13.11;40.28;101148.44;5052337;28;20025;-49
2022/10/16 05:06:38;;;;;;;8.25;4.28;;;;;;;14.94;36.20;101142.28;5052668;28;20127;-52
2022/10/16 05:09:04;;;;;;;7.32;4.43;;;;;;;16.48;33.45;101147.00;5040111;28;20045;-54
2022/10/16 05:11:30;;;;;;;8.30;4.35;;;;;;;17.70;31.33;101136.56;5032755;28;20460;-54
2022/10/16 05:13:55;;;;;;;6.55;4.38;;;;;;;18.88;29.33;101152.91;5032589;28;20025;-50
2022/10/16 05:16:21;;;;;;;7.70;4.50;;;;;;;19.96;27.51;101157.09;5032341;28;20040;-50
2022/10/16 05:18:46;;;;;;;9.05;4.65;;;;;;;20.90;26.01;101146.75;5041304;28;20055;-52
2022/10/16 05:21:11;;;;;;;6.57;4.55;;;;;;;21.74;24.68;101152.50;5052300;28;20057;-53
2022/10/16 05:23:37;;;;;;;11.35;4.72;;;;;;;22.45;23.95;101134.91;5051849;28;20443;-54
2022/10/16 05:26:03;;;;;;;10.82;5.05;;;;;;;23.26;22.56;101143.22;5052428;28;20398;-60
2022/10/16 05:28:30;;;;;;;8.80;4.40;;;;;;;23.97;21.96;101155.19;5045148;28;20087;-58
2022/10/16 05:30:56;;;;;;;8.50;4.60;;;;;;;24.73;20.68;101160.81;5032276;28;20360;-60
2022/10/16 05:33:24;;;;;;;7.13;5.10;;;;;;;25.40;19.81;101128.09;5032448;28;20036;-59
2022/10/16 05:35:49;;;;;;;8.05;4.53;;;;;;;26.08;19.06;101160.00;5049429;28;20351;-60
2022/10/16 05:38:18;;;;;;;4.97;4.00;;;;;;;26.43;18.73;101167.56;5036783;28;20421;-58
2022/10/16 05:40:43;;;;;;;8.57;4.10;;;;;;;27.00;17.62;101153.88;5036493;28;20057;-61
2022/10/16 05:43:09;;;;;;;8.48;4.45;;;;;;;27.57;17.38;101156.56;5053448;28;20041;-61
2022/10/16 05:45:34;;;;;;;6.18;4.70;;;;;;;28.16;16.42;101148.75;5056414;28;20029;-61
2022/10/16 05:48:00;;;;;;;7.03;4.22;;;;;;;28.60;16.08;101158.34;5053062;28;20061;-62
2022/10/16 05:50:27;;;;;;;5.82;4.18;;;;;;;28.91;15.66;101139.47;5036222;28;20041;-62
2022/10/16 05:52:52;;;;;;;4.90;3.97;;;;;;;29.50;15.13;101156.94;5050005;28;20029;-61
2022/10/16 05:55:18;;;;;;;9.27;4.57;;;;;;;29.81;14.38;101157.25;5056382;28;20091;-60
2022/10/16 05:57:43;;;;;;;6.20;4.60;;;;;;;30.04;14.32;101158.66;5055512;28;20120;-59
2022/10/16 06:00:09;;;;;;;8.55;4.25;;;;;;;30.30;14.21;101162.31;5036023;28;20029;-60
2022/10/16 06:02:35;;;;;;;9.35;4.45;;;;;;;30.75;14.00;101164.97;5035857;28;20492;-58
2022/10/16 06:05:00;;;;;;;5.22;4.03;;;;;;;31.00;13.68;101164.09;5039522;28;20108;-60
2022/10/16 06:07:26;;;;;;;7.20;4.20;;;;;;;31.45;12.75;101163.00;5043359;28;20056;-60
2022/10/16 06:09:52;;;;;;;7.47;4.40;;;;;;;31.63;13.12;101164.91;5036162;28;20108;-62
2022/10/16 06:12:18;;;;;;;6.15;4.18;;;;;;;31.90;12.77;101167.38;5035619;28;20041;-61
2022/10/16 06:14:46;;;;;;;8.20;3.80;;;;;;;32.33;12.27;101161.88;5036030;28;20034;-62
2022/10/16 06:17:12;;;;;;;6.28;4.38;;;;;;;32.52;11.89;101161.78;5034617;28;20053;-62
2022/10/16 06:19:38;;;;;;;7.28;4.60;;;;;;;32.70;11.64;101166.41;5055119;28;20029;-61
2022/10/16 06:22:04;;;;;;;11.25;4.75;;;;;;;32.79;11.75;101160.22;5055926;28;20078;-61
2022/10/16 06:24:29;;;;;;;7.15;4.25;;;;;;;32.90;11.44;101163.31;5055407;28;20037;-62
2022/10/16 06:26:55;;;;;;;5.30;4.35;;;;;;;32.87;11.73;101145.16;5054529;28;20806;-62
2022/10/16 06:29:20;;;;;;;11.20;4.97;;;;;;;33.29;11.55;101165.56;5037980;28;20037;-62
2022/10/16 06:31:46;;;;;;;11.52;5.22;;;;;;;33.59;10.90;101164.53;5035084;28;20065;-62
2022/10/16 06:34:11;;;;;;;7.40;5.05;;;;;;;33.64;11.01;101168.28;5035083;28;20407;-62
2022/10/16 06:36:38;;;;;;;7.57;4.90;;;;;;;33.58;10.72;101166.50;5035554;28;20034;-62
2022/10/16 06:39:05;;;;;;;10.10;4.95;;;;;;;33.60;11.13;101175.41;5052499;28;20029;-63
2022/10/16 06:41:31;;;;;;;9.00;4.72;;;;;;;33.62;10.86;101170.47;5053877;28;20049;-65
2022/10/16 06:43:56;;;;;;;7.30;4.55;;;;;;;33.98;10.72;101166.72;5054375;28;20833;-62
2022/10/16 06:46:24;;;;;;;8.27;5.00;;;;;;;34.22;10.49;101173.03;5054416;28;20040;-62
2022/10/16 06:48:49;;;;;;;8.88;4.80;;;;;;;34.32;10.26;101173.19;5040317;28;20021;-65
2022/10/16 06:51:20;;;;;;;12.40;4.90;;;;;;;34.51;10.15;101172.16;5053530;28;20120;-62
2022/10/16 06:53:51;;;;;;;8.18;4.97;;;;;;;34.77;10.23;101174.25;5054465;28;20039;-63
2022/10/16 06:56:19;;;;;;;9.05;4.80;;;;;;;35.00;10.07;101174.31;5055078;28;20032;-62
2022/10/16 06:58:45;;;;;;;11.52;5.40;;;;;;;35.11;9.96;101173.41;5053710;28;20036;-62
2022/10/16 07:01:12;;;;;;;13.80;5.57;;;;;;;35.01;9.56;101176.88;5054641;28;20048;-62
2022/10/16 07:03:38;;;;;;;7.93;4.72;;;;;;;34.71;10.22;101182.78;5054948;28;20033;-62
2022/10/16 07:06:05;;;;;;;7.43;4.72;;;;;;;34.53;9.95;101175.53;5054261;28;20036;-61
2022/10/16 07:08:32;;;;;;;7.18;4.43;;;;;;;34.42;10.19;101182.81;5042313;28;20084;-62
2022/10/16 07:10:59;;;;;;;9.35;4.93;;;;;;;34.11;10.37;101179.47;5033812;28;20502;-64
2022/10/16 07:13:25;;;;;;;9.95;4.85;;;;;;;33.93;10.19;101168.28;5050880;28;20052;-64
2022/10/16 07:15:51;;;;;;;14.30;5.18;;;;;;;34.08;10.32;101164.16;5053884;28;20129;-64
2022/10/16 07:18:16;;;;;;;10.32;5.50;;;;;;;34.27;9.85;101177.84;5050602;28;20088;-63
2022/10/16 07:20:41;;;;;;;11.27;6.22;;;;;;;34.12;10.26;101175.59;5064871;28;20053;-63
2022/10/16 07:23:07;;;;;;;9.73;4.60;;;;;;;33.91;10.15;101170.47;5034498;28;20166;-64
2022/10/16 07:25:32;;;;;;;11.07;5.07;;;;;;;33.67;10.41;101175.28;5033447;28;20408;-64
2022/10/16 07:27:58;;;;;;;11.32;4.82;;;;;;;33.05;10.56;101180.31;5035632;28;20026;-64
2022/10/16 07:30:23;;;;;;;15.57;5.43;;;;;;;31.81;11.88;101168.75;5037677;28;20120;-64
2022/10/16 07:32:48;;;;;;;9.98;4.82;;;;;;;29.70;13.27;101169.00;5051484;28;20394;-63
2022/10/16 07:35:14;;;;;;;13.35;4.88;;;;;;;27.13;15.15;101177.84;5053528;28;20029;-64
2022/10/16 07:37:43;;;;;;;12.32;4.68;;;;;;;24.70;17.35;101177.63;5049519;28;20057;-62
2022/10/16 07:40:09;;;;;;;7.57;5.57;;;;;;;22.32;19.96;101187.22;5033697;28;20054;-65
2022/10/16 07:42:34;;;;;;;11.00;5.22;;;;;;;20.36;22.46;101185.72;5047544;28;20048;-61
2022/10/16 07:45:00;;;;;;;11.05;5.28;;;;;;;18.71;24.64;101182.50;5071629;28;20043;-62
2022/10/16 07:47:25;;;;;;;13.88;5.78;;;;;;;17.48;26.35;101181.81;5037691;28;20091;-61
2022/10/16 07:49:51;;;;;;;9.73;5.10;;;;;;;16.50;28.27;101182.88;5053793;28;20036;-61
2022/10/16 07:52:16;;;;;;;11.27;6.07;;;;;;;15.84;29.20;101188.31;5051867;28;20112;-61
2022/10/16 07:54:42;;;;;;;12.38;5.28;;;;;;;15.31;30.15;101181.69;5052416;28;20037;-62
2022/10/16 07:57:07;;;;;;;9.18;5.40;;;;;;;14.95;30.94;101186.31;5053648;28;20060;-63
2022/10/16 07:59:33;;;;;;;14.45;6.05;;;;;;;14.62;31.81;101189.63;5033355;28;20091;-61
2022/10/16 08:01:58;;;;;;;14.40;6.07;;;;;;;14.28;32.47;101183.22;5033229;28;20069;-62
2022/10/16 08:04:23;;;;;;;10.77;5.70;;;;;;;14.14;33.03;101190.47;5033035;28;20029;-61
2022/10/16 08:06:49;;;;;;;11.07;5.10;;;;;;;13.89;33.52;101186.91;5033283;28;20037;-61
2022/10/16 08:09:15;;;;;;;16.20;5.47;;;;;;;13.82;33.82;101191.00;5034824;28;20049;-61
2022/10/16 08:11:40;;;;;;;9.77;5.78;;;;;;;13.73;33.84;101188.97;5046707;28;20523;-62
2022/10/16 08:14:06;;;;;;;14.35;5.55;;;;;;;13.58;34.53;101194.50;5051051;28;20072;-62
2022/10/16 08:16:31;;;;;;;12.00;5.78;;;;;;;13.47;34.86;101189.88;5033016;28;20103;-61
2022/10/16 08:18:56;;;;;;;10.13;5.28;;;;;;;13.42;34.78;101192.03;5046501;28;20033;-63
2022/10/16 08:21:23;;;;;;;10.40;5.10;;;;;;;13.40;34.98;101177.81;5053322;28;20467;-63
2022/10/16 08:23:49;;;;;;;13.50;5.30;;;;;;;13.37;35.14;101188.78;5053173;28;20363;-63
2022/10/16 08:26:15;;;;;;;7.50;4.85;;;;;;;13.25;35.47;101182.44;5052980;28;20036;-62
2022/10/16 08:28:40;;;;;;;12.45;5.10;;;;;;;13.17;35.57;101174.94;5041814;28;20029;-64
2022/10/16 08:31:15;;;;;;;12.93;5.43;;;;;;;13.17;35.08;101187.50;5044224;28;20037;-62
2022/10/16 08:33:43;;;;;;;10.55;5.20;;;;;;;12.93;36.06;101182.84;5053002;28;20351;-65
2022/10/16 08:36:10;;;;;;;11.38;4.53;;;;;;;12.90;36.46;101188.44;5053133;28;20045;-62
2022/10/16 08:38:36;;;;;;;9.18;5.00;;;;;;;12.86;36.60;101184.25;5042074;28;20221;-62
2022/10/16 08:41:40;;;;;;;10.43;4.95;;;;;;;12.94;35.61;101172.97;5047894;28;20181;-63
2022/10/16 08:44:27;;;;;;;8.60;4.95;;;;;;;12.96;36.33;101188.00;5033069;28;20117;-61
2022/10/16 08:47:04;;;;;;;9.68;4.68;;;;;;;12.95;36.11;101188.97;5033035;28;20117;-63
2022/10/16 08:49:30;;;;;;;10.10;4.88;;;;;;;12.84;36.52;101189.72;5048411;28;20053;-62
2022/10/16 08:51:57;;;;;;;10.75;4.82;;;;;;;12.74;37.03;101172.50;5032261;28;20044;-63
2022/10/16 08:54:29;;;;;;;9.30;4.50;;;;;;;12.84;36.82;101181.66;5030369;28;20368;-63
2022/10/16 08:56:56;;;;;;;9.40;4.57;;;;;;;12.87;36.85;101183.28;5030830;28;20589;-63
2022/10/16 08:59:22;;;;;;;15.88;4.82;;;;;;;12.90;36.76;101180.38;5030066;28;20044;-64
2022/10/16 09:01:51;;;;;;;8.60;4.40;;;;;;;12.96;36.64;101188.00;5030000;28;20114;-62
2022/10/16 09:04:22;;;;;;;11.25;4.28;;;;;;;12.97;36.74;101180.81;5030606;28;20048;-63
2022/10/16 09:06:57;;;;;;;13.30;4.25;;;;;;;12.91;36.64;101166.84;5030626;28;20029;-63
2022/10/16 09:09:50;;;;;;;13.05;4.97;;;;;;;13.05;36.44;101182.03;5033295;28;20467;-62
2022/10/16 09:12:36;;;;;;;11.20;4.28;;;;;;;13.09;36.16;101185.34;5032456;28;20387;-62
2022/10/16 09:15:20;;;;;;;9.27;4.50;;;;;;;12.94;36.88;101184.56;5031463;28;20017;-62
2022/10/16 09:17:59;;;;;;;7.80;4.55;;;;;;;13.04;36.47;101187.50;5035110;28;20048;-61
2022/10/16 09:20:34;;;;;;;11.18;4.35;;;;;;;12.99;36.61;101176.19;5050939;28;20033;-62
2022/10/16 09:23:30;;;;;;;10.10;3.95;;;;;;;13.03;36.63;101173.19;5052201;28;20029;-62
2022/10/16 09:25:58;;;;;;;12.70;4.35;;;;;;;12.96;36.80;101161.13;5038860;28;20345;-63
2022/10/16 09:28:24;;;;;;;8.80;3.53;;;;;;;12.92;36.83;101157.81;5040127;28;20037;-62
2022/10/16 09:30:50;;;;;;;7.80;4.20;;;;;;;13.01;36.83;101176.94;5052058;28;20110;-65
2022/10/16 09:33:18;;;;;;;7.68;4.18;;;;;;;13.03;36.98;101170.50;5052133;28;20029;-62
2022/10/16 09:35:47;;;;;;;11.90;4.10;;;;;;;13.06;36.96;101183.75;5052436;28;20029;-63
2022/10/16 09:38:26;;;;;;;11.55;4.28;;;;;;;13.23;36.33;101165.53;5045757;28;20023;-61
2022/10/16 09:40:52;;;;;;;8.93;3.65;;;;;;;13.06;36.37;101161.34;5032058;28;20057;-61
2022/10/16 09:43:41;;;;;;;8.65;3.50;;;;;;;13.20;36.22;101168.44;5032202;28;20071;-63
2022/10/16 09:46:31;;;;;;;5.82;3.70;;;;;;;13.23;35.97;101164.69;5031327;28;20038;-61
2022/10/16 09:49:01;;;;;;;9.23;3.97;;;;;;;13.15;36.26;101165.22;5032340;28;20034;-62
2022/10/16 09:51:37;;;;;;;15.07;3.67;;;;;;;13.22;36.63;101171.88;5048351;28;20064;-62
2022/10/16 09:54:06;;;;;;;6.35;3.28;;;;;;;13.25;36.00;101160.06;5051163;28;20040;-62
2022/10/16 09:56:33;;;;;;;8.75;3.28;;;;;;;13.24;36.06;101159.19;5052235;28;20399;-62
2022/10/16 09:59:03;;;;;;;11.05;3.67;;;;;;;13.29;36.09;101158.88;5039041;28;20033;-62
2022/10/16 10:01:40;;;;;;;4.47;3.13;;;;;;;13.43;35.39;101155.22;5031945;28;20033;-63
2022/10/16 10:04:07;;;;;;;5.18;3.03;;;;;;;13.28;35.49;101141.91;5032039;28;20148;-61
2022/10/16 10:06:55;;;;;;;12.15;3.38;;;;;;;13.51;35.28;101150.19;5032064;28;20067;-63
2022/10/16 10:09:22;;;;;;;9.10;3.20;;;;;;;13.43;35.27;101153.41;5032378;28;20025;-62
2022/10/16 10:12:01;;;;;;;7.88;3.33;;;;;;;13.46;35.15;101152.31;5036935;28;20470;-62
2022/10/16 10:14:36;;;;;;;5.60;3.25;;;;;;;13.44;35.11;101152.44;5051495;28;20040;-63
2022/10/16 10:17:25;;;;;;;7.25;3.35;;;;;;;13.46;35.30;101149.63;5067366;28;20424;-61
2022/10/16 10:19:54;;;;;;;12.20;3.83;;;;;;;13.39;35.35;101154.59;5034920;28;20436;-63
2022/10/16 10:22:24;;;;;;;8.68;3.40;;;;;;;13.31;35.40;101135.41;5053793;28;20110;-61
2022/10/16 10:25:14;;;;;;;8.55;3.50;;;;;;;13.43;35.33;101147.16;5055668;28;20063;-62
2022/10/16 10:27:46;;;;;;;10.75;3.13;;;;;;;13.40;35.32;101136.59;5054381;28;20118;-61
2022/10/16 10:30:31;;;;;;;4.25;2.95;;;;;;;13.56;34.89;101137.25;5034759;28;20041;-62
2022/10/16 10:33:24;;;;;;;7.70;3.20;;;;;;;13.31;35.09;101101.31;5035444;28;20033;-62
2022/10/16 10:36:03;;;;;;;5.88;2.78;;;;;;;13.47;35.22;101137.91;5053493;28;20583;-63
2022/10/16 10:38:37;;;;;;;8.98;3.20;;;;;;;13.49;35.25;101138.63;5053241;28;20033;-61
2022/10/16 10:41:25;;;;;;;14.15;3.53;;;;;;;13.59;34.96;101145.09;5054965;28;20123;-62
2022/10/16 10:44:01;;;;;;;7.97;3.20;;;;;;;13.46;35.31;101138.88;5054858;28;20033;-62
2022/10/16 10:46:35;;;;;;;8.75;3.28;;;;;;;13.45;35.36;101143.41;5054895;28;20036;-61
2022/10/16 10:49:33;;;;;;;5.07;3.25;;;;;;;13.40;35.64;101132.09;5039562;28;20500;-62
2022/10/16 10:51:58;;;;;;;7.38;3.22;;;;;;;13.45;35.44;101134.47;5023063;28;20106;-62
2022/10/16 10:54:32;;;;;;;7.22;3.13;;;;;;;13.53;35.22;101129.41;5034814;28;20037;-63
2022/10/16 10:57:22;;;;;;;4.75;2.88;;;;;;;13.58;35.25;101129.06;5046893;28;20467;-62
2022/10/16 11:00:04;;;;;;;10.80;3.63;;;;;;;13.54;35.58;101128.44;5034870;28;20087;-63
2022/10/16 11:02:40;;;;;;;5.97;3.30;;;;;;;13.58;35.56;101115.59;5034273;28;20033;-61
2022/10/16 11:05:26;;;;;;;7.10;3.45;;;;;;;13.66;35.48;101131.19;5053296;28;20044;-61
2022/10/16 11:08:02;;;;;;;11.02;9.18;;;;;;;13.73;35.28;101127.06;5047397;28;20037;-61
2022/10/16 11:10:57;;;;;;;10.93;3.60;;;;;;;13.83;35.04;101127.25;5034435;28;20065;-61
2022/10/16 11:14:00;;;;;;;9.43;3.63;;;;;;;13.78;35.04;101130.31;5028129;28;20459;-62
2022/10/16 11:16:33;;;;;;;9.50;3.30;;;;;;;13.61;35.35;101131.50;5034134;28;20459;-62
2022/10/16 11:19:28;;;;;;;8.43;3.25;;;;;;;13.43;35.69;101101.44;5048766;28;20033;-61
2022/10/16 11:22:19;;;;;;;5.50;3.30;;;;;;;13.54;35.71;101124.88;5048311;28;20029;-63
2022/10/16 11:24:50;;;;;;;17.75;10.35;;;;;;;13.37;36.04;101116.13;5031510;28;20333;-63
2022/10/16 11:27:38;;;;;;;17.45;4.40;;;;;;;13.16;36.28;101083.59;5035469;28;20037;-62
2022/10/16 11:30:14;;;;;;;8.40;3.70;;;;;;;13.37;36.03;101113.44;5061507;28;20049;-62
2022/10/16 11:33:09;;;;;;;10.20;3.78;;;;;;;13.48;35.92;101121.66;5069423;28;20356;-63
2022/10/16 11:35:52;;;;;;;10.90;3.88;;;;;;;13.38;36.21;101122.41;5047509;28;20041;-63
2022/10/16 11:38:30;;;;;;;7.95;3.50;;;;;;;13.26;36.48;101118.75;5041240;28;20057;-63